createdAt,value
2017-11-23T00:02:07.354Z,18.77
2017-11-23T00:04:34.786Z,19.87
2017-11-23T00:07:02.230Z,19.58
2017-11-23T00:09:29.653Z,21.35
2017-11-23T00:11:57.101Z,21.02
2017-11-23T00:14:24.534Z,21.62
2017-11-23T00:16:51.961Z,22.00
2017-11-23T00:19:19.401Z,22.92
2017-11-23T00:21:46.832Z,19.08
2017-11-23T00:24:14.274Z,21.70
2017-11-23T00:26:41.702Z,20.35
2017-11-23T00:29:09.134Z,20.55
2017-11-23T00:31:36.577Z,20.52
2017-11-23T00:34:04.001Z,21.55
2017-11-23T00:36:31.447Z,20.62
2017-11-23T00:38:58.869Z,19.50
2017-11-23T00:41:26.302Z,18.98
2017-11-23T00:43:53.749Z,20.80
2017-11-23T00:46:21.148Z,22.40
2017-11-23T00:48:48.625Z,19.37
2017-11-23T00:51:16.058Z,21.10
2017-11-23T00:53:43.481Z,21.30
2017-11-23T00:56:10.920Z,21.65
2017-11-23T00:58:38.350Z,22.73
2017-11-23T01:01:05.798Z,23.48
2017-11-23T01:03:33.221Z,23.50
2017-11-23T01:06:00.651Z,21.52
2017-11-23T01:08:28.085Z,23.80
2017-11-23T01:10:55.520Z,24.33
2017-11-23T01:13:22.958Z,22.70
2017-11-23T01:15:50.382Z,22.10
2017-11-23T01:18:17.810Z,22.92
2017-11-23T01:20:45.258Z,24.15
2017-11-23T01:23:12.681Z,22.42
2017-11-23T01:25:40.122Z,23.00
2017-11-23T01:28:07.565Z,24.73
2017-11-23T01:30:34.994Z,22.87
2017-11-23T01:33:02.437Z,23.40
2017-11-23T01:35:29.866Z,24.02
2017-11-23T01:37:57.306Z,22.42
2017-11-23T01:40:24.733Z,22.60
2017-11-23T01:42:52.170Z,22.77
2017-11-23T01:45:19.606Z,22.37
2017-11-23T01:47:47.038Z,22.77
2017-11-23T01:50:14.477Z,23.20
2017-11-23T01:52:41.902Z,23.38
2017-11-23T01:55:09.346Z,22.80
2017-11-23T01:57:36.775Z,20.85
2017-11-23T02:00:04.198Z,21.15
2017-11-23T02:02:31.637Z,20.83
2017-11-23T02:04:59.066Z,21.02
2017-11-23T02:07:26.514Z,19.08
2017-11-23T02:09:53.945Z,17.33
2017-11-23T02:12:21.365Z,19.90
2017-11-23T02:14:48.802Z,19.55
2017-11-23T02:17:16.225Z,22.15
2017-11-23T02:19:43.666Z,20.55
2017-11-23T02:22:11.089Z,20.20
2017-11-23T02:24:38.514Z,20.62
2017-11-23T02:27:05.953Z,22.30
2017-11-23T02:29:33.386Z,21.70
2017-11-23T02:32:00.833Z,21.12
2017-11-23T02:34:28.258Z,20.10
2017-11-23T02:36:55.690Z,21.12
2017-11-23T02:39:23.122Z,22.10
2017-11-23T02:41:50.550Z,21.92
2017-11-23T02:44:17.998Z,20.90
2017-11-23T02:46:45.425Z,22.33
2017-11-23T02:49:12.849Z,20.73
2017-11-23T02:51:40.291Z,22.00
2017-11-23T02:54:07.718Z,19.12
2017-11-23T02:56:35.157Z,18.75
2017-11-23T02:59:02.581Z,18.40
2017-11-23T03:01:30.014Z,18.75
2017-11-23T03:03:57.476Z,18.15
2017-11-23T03:06:24.875Z,17.80
2017-11-23T03:08:52.323Z,19.27
2017-11-23T03:11:19.753Z,17.83
2017-11-23T03:13:47.172Z,18.62
2017-11-23T03:16:14.609Z,17.55
2017-11-23T03:18:42.058Z,17.67
2017-11-23T03:21:09.464Z,17.77
2017-11-23T03:23:36.927Z,18.40
2017-11-23T03:26:04.353Z,17.67
2017-11-23T03:28:31.794Z,18.20
2017-11-23T03:30:59.227Z,18.92
2017-11-23T03:33:26.677Z,19.30
2017-11-23T03:35:54.092Z,17.90
2017-11-23T03:38:21.526Z,17.50
2017-11-23T03:40:48.965Z,17.80
2017-11-23T03:43:16.389Z,16.23
2017-11-23T03:45:43.841Z,18.12
2017-11-23T03:48:11.266Z,18.30
2017-11-23T03:50:38.691Z,16.95
2017-11-23T03:53:06.126Z,18.55
2017-11-23T03:55:33.554Z,16.70
2017-11-23T03:58:00.999Z,19.65
2017-11-23T04:00:28.418Z,19.12
2017-11-23T04:02:55.846Z,18.67
2017-11-23T04:05:23.284Z,19.62
2017-11-23T04:07:50.714Z,20.08
2017-11-23T04:10:18.185Z,18.12
2017-11-23T04:12:45.634Z,20.35
2017-11-23T04:15:13.064Z,20.62
2017-11-23T04:17:40.498Z,19.60
2017-11-23T04:20:07.924Z,19.55
2017-11-23T04:22:35.440Z,18.87
2017-11-23T04:25:02.871Z,18.87
2017-11-23T04:27:30.293Z,19.27
2017-11-23T04:29:57.730Z,19.62
2017-11-23T04:32:25.157Z,20.00
2017-11-23T04:34:52.609Z,20.62
2017-11-23T04:37:20.034Z,20.40
2017-11-23T04:39:47.466Z,20.90
2017-11-23T04:42:14.905Z,20.08
2017-11-23T04:44:42.333Z,21.05
2017-11-23T04:47:09.777Z,20.80
2017-11-23T04:49:37.205Z,20.00
2017-11-23T04:52:04.654Z,20.42
2017-11-23T04:54:32.094Z,21.10
2017-11-23T04:56:59.537Z,21.15
2017-11-23T04:59:26.982Z,19.12
2017-11-23T05:01:54.421Z,20.35
2017-11-23T05:04:22.809Z,19.52
2017-11-23T05:06:50.246Z,17.73
2017-11-23T05:09:17.676Z,18.37
2017-11-23T05:11:45.115Z,17.67
2017-11-23T05:14:12.537Z,18.45
2017-11-23T05:16:39.978Z,17.10
2017-11-23T05:19:07.402Z,17.98
2017-11-23T05:21:34.836Z,18.58
2017-11-23T05:24:02.274Z,18.55
2017-11-23T05:26:29.706Z,17.60
2017-11-23T05:28:57.145Z,18.98
2017-11-23T05:31:24.586Z,18.55
2017-11-23T05:33:52.013Z,20.02
2017-11-23T05:36:19.486Z,18.27
2017-11-23T05:38:46.942Z,17.55
2017-11-23T05:41:14.390Z,18.77
2017-11-23T05:43:41.830Z,18.52
2017-11-23T05:46:09.302Z,17.20
2017-11-23T05:48:36.745Z,17.45
2017-11-23T05:51:04.229Z,18.60
2017-11-23T05:53:31.665Z,19.50
2017-11-23T05:55:59.094Z,19.45
2017-11-23T05:58:27.447Z,16.33
2017-11-23T06:00:54.885Z,14.00
2017-11-23T06:03:22.316Z,13.73
2017-11-23T06:05:49.762Z,15.07
2017-11-23T06:08:17.190Z,14.45
2017-11-23T06:10:44.618Z,15.75
2017-11-23T06:13:12.071Z,15.18
2017-11-23T06:15:39.561Z,14.98
2017-11-23T06:18:06.998Z,15.30
2017-11-23T06:20:34.429Z,13.05
2017-11-23T06:23:01.864Z,14.95
2017-11-23T06:25:29.301Z,13.02
2017-11-23T06:27:56.726Z,14.75
2017-11-23T06:30:24.178Z,12.45
2017-11-23T06:32:51.606Z,13.00
2017-11-23T06:35:19.037Z,11.63
2017-11-23T06:37:46.477Z,12.48
2017-11-23T06:40:13.910Z,13.82
2017-11-23T06:42:41.362Z,13.73
2017-11-23T06:45:08.789Z,15.80
2017-11-23T06:47:36.218Z,17.00
2017-11-23T06:50:03.663Z,16.10
2017-11-23T06:52:31.090Z,17.48
2017-11-23T06:54:58.528Z,17.83
2017-11-23T06:57:25.955Z,19.45
2017-11-23T06:59:53.381Z,16.75
2017-11-23T07:02:20.823Z,17.15
2017-11-23T07:04:48.250Z,17.60
2017-11-23T07:07:15.690Z,15.95
2017-11-23T07:09:43.122Z,16.83
2017-11-23T07:12:10.558Z,15.82
2017-11-23T07:14:37.994Z,15.68
2017-11-23T07:17:05.434Z,17.27
2017-11-23T07:19:32.888Z,17.58
2017-11-23T07:22:00.321Z,18.33
2017-11-23T07:24:27.754Z,16.15
2017-11-23T07:26:55.202Z,16.02
2017-11-23T07:29:22.630Z,16.08
2017-11-23T07:31:50.084Z,16.10
2017-11-23T07:34:18.146Z,15.63
2017-11-23T07:36:45.584Z,14.80
2017-11-23T07:39:13.029Z,15.90
2017-11-23T07:41:40.458Z,14.32
2017-11-23T07:44:07.902Z,16.00
2017-11-23T07:46:35.333Z,13.27
2017-11-23T07:49:02.767Z,13.62
2017-11-23T07:51:30.221Z,15.68
2017-11-23T07:53:57.667Z,15.27
2017-11-23T07:56:25.122Z,15.18
2017-11-23T07:58:52.537Z,14.07
2017-11-23T08:01:19.969Z,15.38
2017-11-23T08:03:47.418Z,13.23
2017-11-23T08:06:14.854Z,13.45
2017-11-23T08:08:42.307Z,12.65
2017-11-23T08:11:09.728Z,12.05
2017-11-23T08:13:37.161Z,13.15
2017-11-23T08:16:04.597Z,14.93
2017-11-23T08:18:32.032Z,12.90
2017-11-23T08:20:59.478Z,13.45
2017-11-23T08:23:26.911Z,12.83
2017-11-23T08:25:54.342Z,13.18
2017-11-23T08:28:21.779Z,13.10
2017-11-23T08:30:49.217Z,12.35
2017-11-23T08:33:16.670Z,15.18
2017-11-23T08:35:44.135Z,12.53
2017-11-23T08:38:11.567Z,11.40
2017-11-23T08:40:38.997Z,11.43
2017-11-23T08:43:06.426Z,12.20
2017-11-23T08:45:33.862Z,13.13
2017-11-23T08:48:01.286Z,12.67
2017-11-23T08:50:28.712Z,11.60
2017-11-23T08:52:57.946Z,10.90
2017-11-23T08:55:27.322Z,13.30
2017-11-23T08:57:54.770Z,11.80
2017-11-23T09:00:22.194Z,12.70
2017-11-23T09:02:51.426Z,12.30
2017-11-23T09:05:19.582Z,13.43
2017-11-23T09:07:47.002Z,11.37
2017-11-23T09:10:14.436Z,11.20
2017-11-23T09:12:43.762Z,10.97
2017-11-23T09:15:11.185Z,10.60
2017-11-23T09:17:38.629Z,13.30
2017-11-23T09:20:06.049Z,11.20
2017-11-23T09:22:33.499Z,11.77
2017-11-23T09:25:00.924Z,11.63
2017-11-23T09:27:28.358Z,10.00
2017-11-23T09:29:55.789Z,9.60
2017-11-23T09:32:23.176Z,9.70
2017-11-23T09:34:50.650Z,8.63
2017-11-23T09:37:18.074Z,8.33
2017-11-23T09:39:45.498Z,7.50
2017-11-23T09:42:12.940Z,11.03
2017-11-23T09:44:40.364Z,7.80
2017-11-23T09:47:07.806Z,8.73
2017-11-23T09:49:35.225Z,8.70
2017-11-23T09:52:02.649Z,9.40
2017-11-23T09:54:30.082Z,7.87
2017-11-23T09:56:57.505Z,8.63
2017-11-23T09:59:24.944Z,8.47
2017-11-23T10:01:52.366Z,8.10
2017-11-23T10:04:19.789Z,8.33
2017-11-23T10:06:47.222Z,8.20
2017-11-23T10:09:14.651Z,8.87
2017-11-23T10:11:42.090Z,7.90
2017-11-23T10:14:15.081Z,8.30
2017-11-23T10:16:42.528Z,8.17
2017-11-23T10:19:09.944Z,8.40
2017-11-23T10:21:37.374Z,7.80
2017-11-23T10:24:04.806Z,8.70
2017-11-23T10:26:32.224Z,8.40
2017-11-23T10:28:59.666Z,9.07
2017-11-23T10:31:27.086Z,8.50
2017-11-23T10:33:54.506Z,7.40
2017-11-23T10:36:21.942Z,7.93
2017-11-23T10:38:49.356Z,7.70
2017-11-23T10:41:17.613Z,8.13
2017-11-23T10:43:45.038Z,8.40
2017-11-23T10:46:12.462Z,7.23
2017-11-23T10:48:40.714Z,7.93
2017-11-23T10:51:08.169Z,8.73
2017-11-23T10:53:35.601Z,7.93
2017-11-23T10:56:03.021Z,8.17
2017-11-23T10:58:30.451Z,8.77
2017-11-23T11:00:57.902Z,8.53
2017-11-23T11:03:25.336Z,7.60
2017-11-23T11:05:52.786Z,9.63
2017-11-23T11:08:20.218Z,8.30
2017-11-23T11:10:47.646Z,8.57
2017-11-23T11:13:15.092Z,7.73
2017-11-23T11:15:42.527Z,7.70
2017-11-23T11:18:09.984Z,9.00
2017-11-23T11:20:37.886Z,8.10
2017-11-23T11:23:05.310Z,7.77
2017-11-23T11:25:32.749Z,8.20
2017-11-23T11:28:00.185Z,8.10
2017-11-23T11:30:27.665Z,8.10
2017-11-23T11:32:55.101Z,7.60
2017-11-23T11:35:22.531Z,7.77
2017-11-23T11:37:49.959Z,8.33
2017-11-23T11:40:17.387Z,6.90
2017-11-23T11:42:44.822Z,8.30
2017-11-23T11:45:12.243Z,8.00
2017-11-23T11:47:39.663Z,8.30
2017-11-23T11:50:07.097Z,7.90
2017-11-23T11:52:34.527Z,7.60
2017-11-23T11:55:01.964Z,7.63
2017-11-23T11:57:29.394Z,7.77
2017-11-23T11:59:56.817Z,6.87
2017-11-23T12:02:24.246Z,7.50
2017-11-23T12:04:51.675Z,7.33
2017-11-23T12:07:19.114Z,6.23
2017-11-23T12:09:46.535Z,6.80
2017-11-23T12:12:13.961Z,7.77
2017-11-23T12:14:41.398Z,7.50
2017-11-23T12:30:45.602Z,7.87
2017-11-23T12:33:13.014Z,7.20
2017-11-23T12:35:40.445Z,6.80
2017-11-23T12:38:07.865Z,6.23
2017-11-23T12:40:35.289Z,8.30
2017-11-23T12:43:02.729Z,7.47
2017-11-23T12:45:30.145Z,6.43
2017-11-23T12:47:57.586Z,6.60
2017-11-23T12:50:25.001Z,6.80
2017-11-23T12:52:52.427Z,6.47
2017-11-23T12:55:19.861Z,6.93
2017-11-23T12:57:47.273Z,6.20
2017-11-23T13:00:14.716Z,6.70
2017-11-23T13:02:42.139Z,7.07
2017-11-23T13:05:09.549Z,6.80
2017-11-23T13:07:36.988Z,6.73
2017-11-23T13:10:04.401Z,6.50
2017-11-23T13:12:31.841Z,7.03
2017-11-23T13:14:59.263Z,6.80
2017-11-23T13:17:26.681Z,7.90
2017-11-23T13:19:54.114Z,7.30
2017-11-23T13:22:21.537Z,6.10
2017-11-23T13:24:48.973Z,6.83
2017-11-23T13:27:16.396Z,7.60
2017-11-23T13:29:43.810Z,8.47
2017-11-23T13:32:11.245Z,7.60
2017-11-23T13:34:38.662Z,7.37
2017-11-23T13:37:06.103Z,9.50
2017-11-23T13:39:33.529Z,8.20
2017-11-23T13:42:00.951Z,7.97
2017-11-23T13:44:28.377Z,8.43
2017-11-23T13:46:55.802Z,8.37
2017-11-23T13:49:23.245Z,12.47
2017-11-23T13:51:50.668Z,7.57
2017-11-23T13:54:18.119Z,8.40
2017-11-23T13:56:45.546Z,9.50
2017-11-23T13:59:12.966Z,9.00
2017-11-23T14:01:40.398Z,8.13
2017-11-23T14:04:07.841Z,7.17
2017-11-23T14:06:35.309Z,7.90
2017-11-23T14:09:02.753Z,8.03
2017-11-23T14:11:30.181Z,7.60
2017-11-23T14:13:57.609Z,8.70
2017-11-23T14:16:25.038Z,7.70
2017-11-23T14:18:52.475Z,7.33
2017-11-23T14:21:19.905Z,6.77
2017-11-23T14:23:47.325Z,7.13
2017-11-23T14:26:14.761Z,6.93
2017-11-23T14:28:42.185Z,7.47
2017-11-23T14:31:09.634Z,7.27
2017-11-23T14:33:37.058Z,6.90
2017-11-23T14:36:04.496Z,7.30
2017-11-23T14:38:31.976Z,6.97
2017-11-23T14:40:59.445Z,7.03
2017-11-23T14:43:26.923Z,7.77
2017-11-23T14:45:54.397Z,9.03
2017-11-23T14:48:21.834Z,8.57
2017-11-23T14:50:49.258Z,8.20
2017-11-23T14:53:16.682Z,8.07
2017-11-23T14:55:44.125Z,7.33
2017-11-23T14:58:11.545Z,8.20
2017-11-23T15:00:38.985Z,8.20
2017-11-23T15:03:06.400Z,9.27
2017-11-23T15:05:33.835Z,11.00
2017-11-23T15:08:01.266Z,9.93
2017-11-23T15:10:28.688Z,8.13
2017-11-23T15:12:56.129Z,7.90
2017-11-23T15:15:23.550Z,8.60
2017-11-23T15:17:50.970Z,9.37
2017-11-23T15:20:18.410Z,8.63
2017-11-23T15:22:45.839Z,7.70
2017-11-23T15:25:13.281Z,8.80
2017-11-23T15:27:40.704Z,8.13
2017-11-23T15:30:08.125Z,8.80
2017-11-23T15:32:35.566Z,10.70
2017-11-23T15:35:02.992Z,8.63
2017-11-23T15:37:30.438Z,8.23
2017-11-23T15:39:57.885Z,13.10
2017-11-23T15:42:25.325Z,7.73
2017-11-23T15:44:52.827Z,9.87
2017-11-23T15:47:20.270Z,10.07
2017-11-23T15:49:47.727Z,8.93
2017-11-23T15:52:15.169Z,9.33
2017-11-23T15:54:43.998Z,9.10
2017-11-23T15:57:11.449Z,8.20
2017-11-23T15:59:38.884Z,9.60
2017-11-23T16:02:06.325Z,8.83
2017-11-23T16:04:33.760Z,9.17
2017-11-23T16:07:01.193Z,7.70
2017-11-23T16:09:28.637Z,7.83
2017-11-23T16:11:56.075Z,8.80
2017-11-23T16:14:23.542Z,11.40
2017-11-23T16:16:50.974Z,8.87
2017-11-23T16:19:18.406Z,8.80
2017-11-23T16:21:45.846Z,8.50
2017-11-23T16:24:13.269Z,8.37
2017-11-23T16:26:40.705Z,8.33
2017-11-23T16:29:08.128Z,8.13
2017-11-23T16:31:35.560Z,7.53
2017-11-23T16:34:02.991Z,8.20
2017-11-23T16:36:30.918Z,8.40
2017-11-23T16:39:04.193Z,9.37
2017-11-23T16:41:33.065Z,11.40
2017-11-23T16:57:51.354Z,10.00
2017-11-23T17:00:30.659Z,10.03
2017-11-23T17:02:58.441Z,9.03
2017-11-23T17:05:31.449Z,10.00
2017-11-23T17:21:33.685Z,10.60
2017-11-23T17:24:01.125Z,11.47
2017-11-23T17:26:28.553Z,10.93
2017-11-23T17:28:55.989Z,11.03
2017-11-23T17:31:23.414Z,11.97
2017-11-23T17:33:50.857Z,10.70
2017-11-23T17:36:18.300Z,9.27
2017-11-23T17:38:45.729Z,10.50
2017-11-23T17:41:13.166Z,9.50
2017-11-23T17:43:40.601Z,11.70
2017-11-23T17:46:08.047Z,11.30
2017-11-23T17:48:35.485Z,11.50
2017-11-23T17:51:02.912Z,10.27
2017-11-23T17:53:30.359Z,9.50
2017-11-23T17:55:57.778Z,9.23
2017-11-23T17:58:25.231Z,10.60
2017-11-23T18:00:52.649Z,9.30
2017-11-23T18:03:20.084Z,10.60
2017-11-23T18:05:47.525Z,11.53
2017-11-23T18:08:14.977Z,10.70
2017-11-23T18:10:42.427Z,10.90
2017-11-23T18:13:09.866Z,10.30
2017-11-23T18:15:37.317Z,10.23
2017-11-23T18:18:04.746Z,9.70
2017-11-23T18:20:32.173Z,10.43
2017-11-23T18:22:59.626Z,8.70
2017-11-23T18:25:27.063Z,8.50
2017-11-23T18:27:54.507Z,9.03
2017-11-23T18:30:21.934Z,9.60
2017-11-23T18:32:49.366Z,9.20
2017-11-23T18:35:16.806Z,9.30
2017-11-23T18:37:44.246Z,8.53
2017-11-23T18:40:11.685Z,8.60
2017-11-23T18:42:39.127Z,9.23
2017-11-23T18:45:06.563Z,10.13
2017-11-23T18:47:33.998Z,8.67
2017-11-23T18:50:01.426Z,9.37
2017-11-23T18:52:28.868Z,10.10
2017-11-23T18:54:56.289Z,9.97
2017-11-23T18:57:23.730Z,8.87
2017-11-23T18:59:51.154Z,9.20
2017-11-23T19:02:18.590Z,9.20
2017-11-23T19:04:46.014Z,9.37
2017-11-23T19:07:13.458Z,9.20
2017-11-23T19:09:40.881Z,10.00
2017-11-23T19:12:08.312Z,9.30
2017-11-23T19:14:35.749Z,10.13
2017-11-23T19:17:03.170Z,9.77
2017-11-23T19:19:30.607Z,9.77
2017-11-23T19:21:58.032Z,9.50
2017-11-23T19:24:25.462Z,9.37
2017-11-23T19:26:53.892Z,9.30
2017-11-23T19:29:21.317Z,10.17
2017-11-23T19:31:48.759Z,9.70
2017-11-23T19:34:16.191Z,9.70
2017-11-23T19:36:43.614Z,9.80
2017-11-23T19:39:11.054Z,8.80
2017-11-23T19:41:38.594Z,8.87
2017-11-23T19:44:06.044Z,9.43
2017-11-23T19:46:33.473Z,9.83
2017-11-23T19:49:00.905Z,8.80
2017-11-23T19:51:28.346Z,9.57
2017-11-23T19:53:55.767Z,9.30
2017-11-23T19:56:23.247Z,9.40
2017-11-23T19:58:50.696Z,9.47
2017-11-23T20:01:18.148Z,9.40
2017-11-23T20:03:45.597Z,9.77
2017-11-23T20:06:13.076Z,10.70
2017-11-23T20:08:40.518Z,9.20
2017-11-23T20:11:07.955Z,10.90
2017-11-23T20:13:35.418Z,11.27
2017-11-23T20:16:02.842Z,9.60
2017-11-23T20:18:30.271Z,9.93
2017-11-23T20:20:57.725Z,9.47
2017-11-23T20:23:25.151Z,10.27
2017-11-23T20:25:52.594Z,9.00
2017-11-23T20:28:20.014Z,9.60
2017-11-23T20:30:47.460Z,8.87
2017-11-23T20:33:14.924Z,10.23
2017-11-23T20:35:42.383Z,8.90
2017-11-23T20:38:09.826Z,9.47
2017-11-23T20:40:37.254Z,9.47
2017-11-23T20:43:04.694Z,9.87
2017-11-23T20:45:32.139Z,9.70
2017-11-23T20:47:59.568Z,10.67
2017-11-23T20:50:27.010Z,10.37
2017-11-23T20:52:54.445Z,11.30
2017-11-23T20:55:21.895Z,9.60
2017-11-23T20:57:49.320Z,9.77
2017-11-23T21:00:16.749Z,10.80
2017-11-23T21:02:44.190Z,9.60
2017-11-23T21:05:12.239Z,9.63
2017-11-23T21:07:39.678Z,9.70
2017-11-23T21:10:07.135Z,10.30
2017-11-23T21:12:34.584Z,9.43
2017-11-23T21:15:02.027Z,9.23
2017-11-23T21:17:29.469Z,9.53
2017-11-23T21:20:00.656Z,9.30
2017-11-23T21:22:28.097Z,9.57
2017-11-23T21:24:55.539Z,10.13
2017-11-23T21:27:22.982Z,10.53
2017-11-23T21:29:50.423Z,11.50
2017-11-23T21:32:17.872Z,11.10
2017-11-23T21:34:45.297Z,12.40
2017-11-23T21:37:12.738Z,11.90
2017-11-23T21:39:40.178Z,10.97
2017-11-23T21:42:08.622Z,9.97
2017-11-23T21:44:36.049Z,9.80
2017-11-23T21:47:09.603Z,10.10
2017-11-23T21:49:37.066Z,9.50
2017-11-23T21:52:04.498Z,10.00
2017-11-23T21:57:05.614Z,8.57
2017-11-23T21:59:33.090Z,8.90
2017-11-23T22:02:00.498Z,8.07
2017-11-23T22:04:27.922Z,9.70
2017-11-23T22:06:56.261Z,9.33
2017-11-23T22:09:23.680Z,9.73
2017-11-23T22:11:51.130Z,10.03
2017-11-23T22:14:18.553Z,9.47
2017-11-23T22:16:45.979Z,9.17
2017-11-23T22:19:13.418Z,8.93
2017-11-23T22:21:40.846Z,9.90
2017-11-23T22:24:08.286Z,9.23
2017-11-23T22:26:35.721Z,9.10
2017-11-23T22:29:06.130Z,10.10
2017-11-23T22:31:33.569Z,9.17
2017-11-23T22:34:01.006Z,8.77
2017-11-23T22:36:28.447Z,9.57
2017-11-23T22:38:55.874Z,9.30
2017-11-23T22:41:23.326Z,11.70
2017-11-23T22:43:50.751Z,9.03
2017-11-23T22:46:18.182Z,9.10
2017-11-23T22:48:45.630Z,8.90
2017-11-23T22:51:13.066Z,9.13
2017-11-23T22:53:40.509Z,8.50
2017-11-23T22:56:07.935Z,9.20
2017-11-23T22:58:35.366Z,8.97
2017-11-23T23:01:04.675Z,9.73
2017-11-23T23:03:34.572Z,9.97
2017-11-23T23:06:19.096Z,9.87
2017-11-23T23:08:46.529Z,8.80
2017-11-23T23:11:13.986Z,10.00
2017-11-23T23:13:46.332Z,8.17
2017-11-23T23:16:13.786Z,8.67
2017-11-23T23:18:41.234Z,8.93
2017-11-23T23:21:08.679Z,8.27
2017-11-23T23:23:36.126Z,7.97
2017-11-23T23:26:03.563Z,7.67
2017-11-23T23:28:30.988Z,8.77
2017-11-23T23:30:58.431Z,8.37
2017-11-23T23:33:25.967Z,8.90
2017-11-23T23:35:53.445Z,7.37
2017-11-23T23:38:20.869Z,8.87
2017-11-23T23:40:51.117Z,8.60
2017-11-23T23:43:18.562Z,7.70
2017-11-23T23:45:48.611Z,8.43
2017-11-23T23:50:59.325Z,8.77
2017-11-23T23:53:26.770Z,9.40
2017-11-23T23:55:54.241Z,9.50
2017-11-23T23:58:21.688Z,9.60
